sensor_id;sensor_type;location;lat;lon;timestamp;P1;durP1;ratioP1;P2;durP2;ratioP2
9938;SDS011;5008;50.656;7.188;2023-06-19T03:34:41;7.80;;;7.18;;
9938;SDS011;5008;50.656;7.188;2023-06-19T03:37:08;7.38;;;6.78;;
9938;SDS011;5008;50.656;7.188;2023-06-19T03:39:35;7.32;;;6.80;;
9938;SDS011;5008;50.656;7.188;2023-06-19T03:42:02;7.80;;;7.13;;
9938;SDS011;5008;50.656;7.188;2023-06-19T03:44:29;7.47;;;6.90;;
9938;SDS011;5008;50.656;7.188;2023-06-19T03:46:56;7.50;;;6.90;;
9938;SDS011;5008;50.656;7.188;2023-06-19T03:49:22;7.13;;;6.45;;
9938;SDS011;5008;50.656;7.188;2023-06-19T03:51:51;7.10;;;6.50;;
9938;SDS011;5008;50.656;7.188;2023-06-19T03:54:19;6.47;;;5.93;;
9938;SDS011;5008;50.656;7.188;2023-06-19T03:56:46;6.10;;;5.60;;
9938;SDS011;5008;50.656;7.188;2023-06-19T03:59:13;5.38;;;4.97;;
9938;SDS011;5008;50.656;7.188;2023-06-19T04:01:40;5.65;;;5.20;;
9938;SDS011;5008;50.656;7.188;2023-06-19T04:04:06;7.13;;;5.65;;
9938;SDS011;5008;50.656;7.188;2023-06-19T04:09:32;5.82;;;5.43;;
9938;SDS011;5008;50.656;7.188;2023-06-19T04:11:59;6.15;;;5.65;;
9938;SDS011;5008;50.656;7.188;2023-06-19T04:14:26;6.35;;;5.85;;
9938;SDS011;5008;50.656;7.188;2023-06-19T04:16:52;7.28;;;5.85;;
9938;SDS011;5008;50.656;7.188;2023-06-19T04:19:19;6.10;;;5.60;;
9938;SDS011;5008;50.656;7.188;2023-06-19T04:21:46;5.78;;;5.28;;
9938;SDS011;5008;50.656;7.188;2023-06-19T04:24:14;5.40;;;5.00;;
9938;SDS011;5008;50.656;7.188;2023-06-19T04:26:41;5.60;;;5.10;;
9938;SDS011;5008;50.656;7.188;2023-06-19T04:29:08;5.57;;;5.07;;
9938;SDS011;5008;50.656;7.188;2023-06-19T04:31:43;6.38;;;5.78;;
9938;SDS011;5008;50.656;7.188;2023-06-19T04:34:12;6.28;;;5.63;;
9938;SDS011;5008;50.656;7.188;2023-06-19T04:36:39;5.72;;;5.20;;
9938;SDS011;5008;50.656;7.188;2023-06-19T04:39:18;6.43;;;5.82;;
9938;SDS011;5008;50.656;7.188;2023-06-19T04:41:46;5.75;;;5.25;;
9938;SDS011;5008;50.656;7.188;2023-06-19T04:44:12;6.15;;;5.65;;
9938;SDS011;5008;50.656;7.188;2023-06-19T04:46:40;6.63;;;6.03;;
9938;SDS011;5008;50.656;7.188;2023-06-19T04:49:07;5.85;;;5.43;;
9938;SDS011;5008;50.656;7.188;2023-06-19T04:51:34;6.00;;;5.50;;
9938;SDS011;5008;50.656;7.188;2023-06-19T04:54:01;5.80;;;5.40;;
9938;SDS011;5008;50.656;7.188;2023-06-19T04:56:29;5.97;;;5.57;;
9938;SDS011;5008;50.656;7.188;2023-06-19T04:58:59;5.80;;;5.40;;
9938;SDS011;5008;50.656;7.188;2023-06-19T05:01:27;5.38;;;4.88;;
9938;SDS011;5008;50.656;7.188;2023-06-19T05:03:55;6.15;;;5.65;;
9938;SDS011;5008;50.656;7.188;2023-06-19T05:06:24;6.30;;;5.80;;
9938;SDS011;5008;50.656;7.188;2023-06-19T05:08:51;5.70;;;5.30;;
9938;SDS011;5008;50.656;7.188;2023-06-19T05:11:18;5.90;;;5.25;;
9938;SDS011;5008;50.656;7.188;2023-06-19T05:13:46;6.03;;;5.53;;
9938;SDS011;5008;50.656;7.188;2023-06-19T05:16:13;6.30;;;5.80;;
9938;SDS011;5008;50.656;7.188;2023-06-19T05:18:41;6.25;;;5.75;;
9938;SDS011;5008;50.656;7.188;2023-06-19T05:21:09;6.05;;;5.55;;
9938;SDS011;5008;50.656;7.188;2023-06-19T05:23:35;6.57;;;5.97;;
9938;SDS011;5008;50.656;7.188;2023-06-19T05:26:03;5.80;;;5.32;;
9938;SDS011;5008;50.656;7.188;2023-06-19T05:28:31;7.55;;;6.05;;
9938;SDS011;5008;50.656;7.188;2023-06-19T05:30:59;5.38;;;4.95;;
9938;SDS011;5008;50.656;7.188;2023-06-19T05:33:26;5.90;;;5.40;;
9938;SDS011;5008;50.656;7.188;2023-06-19T05:35:53;5.75;;;5.25;;
9938;SDS011;5008;50.656;7.188;2023-06-19T05:38:21;6.15;;;5.65;;
9938;SDS011;5008;50.656;7.188;2023-06-19T05:40:48;6.00;;;5.50;;
9938;SDS011;5008;50.656;7.188;2023-06-19T05:43:16;6.05;;;5.60;;
9938;SDS011;5008;50.656;7.188;2023-06-19T05:45:44;5.85;;;5.35;;
9938;SDS011;5008;50.656;7.188;2023-06-19T05:48:12;6.05;;;5.45;;
9938;SDS011;5008;50.656;7.188;2023-06-19T05:50:39;5.40;;;4.88;;
9938;SDS011;5008;50.656;7.188;2023-06-19T05:53:06;5.40;;;5.00;;
9938;SDS011;5008;50.656;7.188;2023-06-19T05:55:33;4.97;;;4.57;;
9938;SDS011;5008;50.656;7.188;2023-06-19T05:58:01;4.90;;;4.50;;
9938;SDS011;5008;50.656;7.188;2023-06-19T06:00:28;5.40;;;4.90;;
9938;SDS011;5008;50.656;7.188;2023-06-19T06:02:55;5.20;;;4.75;;
9938;SDS011;5008;50.656;7.188;2023-06-19T06:05:26;5.35;;;4.88;;
9938;SDS011;5008;50.656;7.188;2023-06-19T06:07:53;5.50;;;5.10;;
9938;SDS011;5008;50.656;7.188;2023-06-19T06:10:20;5.63;;;5.22;;
9938;SDS011;5008;50.656;7.188;2023-06-19T06:12:48;5.10;;;4.70;;
9938;SDS011;5008;50.656;7.188;2023-06-19T06:15:15;5.53;;;5.10;;
9938;SDS011;5008;50.656;7.188;2023-06-19T06:17:42;5.13;;;4.72;;
9938;SDS011;5008;50.656;7.188;2023-06-19T06:20:09;5.00;;;4.60;;
9938;SDS011;5008;50.656;7.188;2023-06-19T06:22:38;6.45;;;4.82;;
9938;SDS011;5008;50.656;7.188;2023-06-19T06:25:09;4.32;;;3.92;;
9938;SDS011;5008;50.656;7.188;2023-06-19T06:27:36;4.88;;;4.40;;
9938;SDS011;5008;50.656;7.188;2023-06-19T06:30:03;4.45;;;4.15;;
9938;SDS011;5008;50.656;7.188;2023-06-19T06:32:30;4.63;;;4.22;;
9938;SDS011;5008;50.656;7.188;2023-06-19T06:35:02;4.90;;;4.50;;
9938;SDS011;5008;50.656;7.188;2023-06-19T06:37:29;4.43;;;3.78;;
9938;SDS011;5008;50.656;7.188;2023-06-19T06:39:57;4.00;;;3.70;;
9938;SDS011;5008;50.656;7.188;2023-06-19T06:42:24;4.47;;;4.07;;
9938;SDS011;5008;50.656;7.188;2023-06-19T06:44:51;3.90;;;3.50;;
9938;SDS011;5008;50.656;7.188;2023-06-19T06:47:17;3.65;;;3.38;;
9938;SDS011;5008;50.656;7.188;2023-06-19T06:49:44;3.08;;;2.88;;
9938;SDS011;5008;50.656;7.188;2023-06-19T06:52:11;3.50;;;3.20;;
9938;SDS011;5008;50.656;7.188;2023-06-19T06:54:38;2.97;;;2.75;;
9938;SDS011;5008;50.656;7.188;2023-06-19T06:57:06;3.35;;;3.05;;
9938;SDS011;5008;50.656;7.188;2023-06-19T06:59:33;3.60;;;3.25;;
9938;SDS011;5008;50.656;7.188;2023-06-19T07:02:00;2.80;;;2.60;;
9938;SDS011;5008;50.656;7.188;2023-06-19T07:04:26;2.92;;;2.70;;
9938;SDS011;5008;50.656;7.188;2023-06-19T07:06:53;3.70;;;2.70;;
9938;SDS011;5008;50.656;7.188;2023-06-19T07:09:22;2.65;;;2.45;;
9938;SDS011;5008;50.656;7.188;2023-06-19T07:11:49;2.70;;;2.50;;
9938;SDS011;5008;50.656;7.188;2023-06-19T07:14:17;3.47;;;2.50;;
9938;SDS011;5008;50.656;7.188;2023-06-19T07:16:44;2.17;;;2.08;;
9938;SDS011;5008;50.656;7.188;2023-06-19T07:19:11;4.43;;;2.47;;
9938;SDS011;5008;50.656;7.188;2023-06-19T07:21:38;2.17;;;2.08;;
9938;SDS011;5008;50.656;7.188;2023-06-19T07:24:06;2.75;;;2.55;;
9938;SDS011;5008;50.656;7.188;2023-06-19T07:26:33;2.80;;;2.60;;
9938;SDS011;5008;50.656;7.188;2023-06-19T07:29:00;3.00;;;2.75;;
9938;SDS011;5008;50.656;7.188;2023-06-19T07:31:28;2.42;;;2.25;;
9938;SDS011;5008;50.656;7.188;2023-06-19T07:33:55;3.03;;;2.53;;
9938;SDS011;5008;50.656;7.188;2023-06-19T07:36:21;2.65;;;2.30;;
9938;SDS011;5008;50.656;7.188;2023-06-19T07:38:48;2.83;;;2.63;;
9938;SDS011;5008;50.656;7.188;2023-06-19T07:41:15;3.03;;;2.83;;
9938;SDS011;5008;50.656;7.188;2023-06-19T07:43:42;2.47;;;2.28;;
9938;SDS011;5008;50.656;7.188;2023-06-19T07:46:09;2.60;;;2.40;;
9938;SDS011;5008;50.656;7.188;2023-06-19T07:48:37;2.75;;;2.55;;
9938;SDS011;5008;50.656;7.188;2023-06-19T07:51:04;4.05;;;2.40;;
9938;SDS011;5008;50.656;7.188;2023-06-19T07:53:31;2.55;;;2.35;;
9938;SDS011;5008;50.656;7.188;2023-06-19T07:55:57;3.25;;;2.85;;
9938;SDS011;5008;50.656;7.188;2023-06-19T07:58:24;3.50;;;3.20;;
9938;SDS011;5008;50.656;7.188;2023-06-19T08:00:51;3.28;;;2.90;;
9938;SDS011;5008;50.656;7.188;2023-06-19T08:03:18;3.50;;;3.20;;
9938;SDS011;5008;50.656;7.188;2023-06-19T08:05:46;3.28;;;3.03;;
9938;SDS011;5008;50.656;7.188;2023-06-19T08:08:13;4.30;;;3.25;;
9938;SDS011;5008;50.656;7.188;2023-06-19T08:10:39;3.10;;;2.90;;
9938;SDS011;5008;50.656;7.188;2023-06-19T08:13:07;3.85;;;3.47;;
9938;SDS011;5008;50.656;7.188;2023-06-19T08:15:36;3.22;;;2.90;;
9938;SDS011;5008;50.656;7.188;2023-06-19T08:18:03;4.07;;;3.17;;
9938;SDS011;5008;50.656;7.188;2023-06-19T08:20:29;2.83;;;2.58;;
9938;SDS011;5008;50.656;7.188;2023-06-19T08:22:58;2.58;;;2.38;;
9938;SDS011;5008;50.656;7.188;2023-06-19T08:25:24;2.55;;;2.28;;
9938;SDS011;5008;50.656;7.188;2023-06-19T08:27:51;2.63;;;2.15;;
9938;SDS011;5008;50.656;7.188;2023-06-19T08:30:19;2.10;;;2.00;;
9938;SDS011;5008;50.656;7.188;2023-06-19T08:32:46;1.67;;;1.58;;
9938;SDS011;5008;50.656;7.188;2023-06-19T08:35:14;1.88;;;1.60;;
9938;SDS011;5008;50.656;7.188;2023-06-19T08:37:41;1.90;;;1.48;;
9938;SDS011;5008;50.656;7.188;2023-06-19T08:40:11;1.73;;;1.63;;
9938;SDS011;5008;50.656;7.188;2023-06-19T08:42:38;2.05;;;1.45;;
9938;SDS011;5008;50.656;7.188;2023-06-19T08:45:08;1.67;;;1.58;;
9938;SDS011;5008;50.656;7.188;2023-06-19T08:47:35;1.98;;;1.83;;
9938;SDS011;5008;50.656;7.188;2023-06-19T08:50:02;1.67;;;1.58;;
9938;SDS011;5008;50.656;7.188;2023-06-19T08:52:29;1.75;;;1.65;;
9938;SDS011;5008;50.656;7.188;2023-06-19T08:55:04;1.90;;;1.70;;
9938;SDS011;5008;50.656;7.188;2023-06-19T08:57:37;2.25;;;1.65;;
9938;SDS011;5008;50.656;7.188;2023-06-19T09:00:05;1.65;;;1.55;;
9938;SDS011;5008;50.656;7.188;2023-06-19T09:02:42;1.98;;;1.88;;
9938;SDS011;5008;50.656;7.188;2023-06-19T09:05:11;1.67;;;1.58;;
9938;SDS011;5008;50.656;7.188;2023-06-19T09:07:39;1.80;;;1.70;;
9938;SDS011;5008;50.656;7.188;2023-06-19T09:10:14;1.90;;;1.80;;
9938;SDS011;5008;50.656;7.188;2023-06-19T09:12:43;1.85;;;1.75;;
9938;SDS011;5008;50.656;7.188;2023-06-19T09:15:19;1.98;;;1.80;;
9938;SDS011;5008;50.656;7.188;2023-06-19T09:17:48;2.20;;;2.00;;
9938;SDS011;5008;50.656;7.188;2023-06-19T09:20:27;2.20;;;2.00;;
9938;SDS011;5008;50.656;7.188;2023-06-19T09:22:54;3.58;;;2.20;;
9938;SDS011;5008;50.656;7.188;2023-06-19T09:25:21;2.10;;;2.00;;
9938;SDS011;5008;50.656;7.188;2023-06-19T09:27:49;2.42;;;2.00;;
9938;SDS011;5008;50.656;7.188;2023-06-19T09:30:16;2.10;;;2.00;;
9938;SDS011;5008;50.656;7.188;2023-06-19T09:32:43;1.90;;;1.80;;
9938;SDS011;5008;50.656;7.188;2023-06-19T09:35:10;2.45;;;2.15;;
9938;SDS011;5008;50.656;7.188;2023-06-19T09:37:37;2.50;;;2.30;;
9938;SDS011;5008;50.656;7.188;2023-06-19T09:40:05;3.95;;;2.20;;
9938;SDS011;5008;50.656;7.188;2023-06-19T09:42:36;1.95;;;1.85;;
9938;SDS011;5008;50.656;7.188;2023-06-19T09:45:06;9.52;;;2.78;;
9938;SDS011;5008;50.656;7.188;2023-06-19T09:47:35;2.22;;;2.03;;
9938;SDS011;5008;50.656;7.188;2023-06-19T09:50:04;3.83;;;2.10;;
9938;SDS011;5008;50.656;7.188;2023-06-19T09:52:32;2.20;;;2.10;;
9938;SDS011;5008;50.656;7.188;2023-06-19T09:55:01;2.53;;;2.20;;
9938;SDS011;5008;50.656;7.188;2023-06-19T09:57:29;2.13;;;2.00;;
9938;SDS011;5008;50.656;7.188;2023-06-19T09:59:57;2.45;;;2.25;;
9938;SDS011;5008;50.656;7.188;2023-06-19T10:02:34;2.70;;;2.50;;
9938;SDS011;5008;50.656;7.188;2023-06-19T10:05:03;2.67;;;2.15;;
9938;SDS011;5008;50.656;7.188;2023-06-19T10:07:32;2.67;;;2.33;;
9938;SDS011;5008;50.656;7.188;2023-06-19T10:10:02;3.00;;;2.35;;
9938;SDS011;5008;50.656;7.188;2023-06-19T10:12:35;2.35;;;2.15;;
9938;SDS011;5008;50.656;7.188;2023-06-19T10:15:09;2.75;;;2.55;;
9938;SDS011;5008;50.656;7.188;2023-06-19T10:17:42;2.42;;;2.22;;
9938;SDS011;5008;50.656;7.188;2023-06-19T10:20:18;2.35;;;2.15;;
9938;SDS011;5008;50.656;7.188;2023-06-19T10:22:51;2.50;;;2.30;;
9938;SDS011;5008;50.656;7.188;2023-06-19T10:25:22;2.60;;;2.40;;
9938;SDS011;5008;50.656;7.188;2023-06-19T10:27:49;2.40;;;2.20;;
9938;SDS011;5008;50.656;7.188;2023-06-19T10:30:18;2.50;;;2.30;;
9938;SDS011;5008;50.656;7.188;2023-06-19T10:32:47;2.53;;;2.33;;
9938;SDS011;5008;50.656;7.188;2023-06-19T10:35:14;2.50;;;2.30;;
9938;SDS011;5008;50.656;7.188;2023-06-19T10:37:42;4.00;;;2.50;;
9938;SDS011;5008;50.656;7.188;2023-06-19T10:40:10;2.28;;;2.17;;
9938;SDS011;5008;50.656;7.188;2023-06-19T10:42:37;2.58;;;2.38;;
9938;SDS011;5008;50.656;7.188;2023-06-19T10:45:05;2.65;;;2.45;;
9938;SDS011;5008;50.656;7.188;2023-06-19T10:47:33;2.65;;;2.45;;
9938;SDS011;5008;50.656;7.188;2023-06-19T10:50:02;2.95;;;2.70;;
9938;SDS011;5008;50.656;7.188;2023-06-19T10:52:29;2.97;;;2.72;;
9938;SDS011;5008;50.656;7.188;2023-06-19T10:54:57;3.10;;;2.80;;
9938;SDS011;5008;50.656;7.188;2023-06-19T10:57:27;2.53;;;2.33;;
9938;SDS011;5008;50.656;7.188;2023-06-19T10:59:54;2.50;;;2.30;;
9938;SDS011;5008;50.656;7.188;2023-06-19T11:02:22;3.78;;;2.83;;
9938;SDS011;5008;50.656;7.188;2023-06-19T11:04:49;3.25;;;2.72;;
9938;SDS011;5008;50.656;7.188;2023-06-19T11:07:20;2.60;;;2.40;;
9938;SDS011;5008;50.656;7.188;2023-06-19T11:09:48;3.25;;;2.97;;
9938;SDS011;5008;50.656;7.188;2023-06-19T11:12:18;2.92;;;2.58;;
9938;SDS011;5008;50.656;7.188;2023-06-19T11:14:46;2.80;;;2.60;;
9938;SDS011;5008;50.656;7.188;2023-06-19T11:17:14;2.60;;;2.40;;
9938;SDS011;5008;50.656;7.188;2023-06-19T11:19:45;2.90;;;2.70;;
9938;SDS011;5008;50.656;7.188;2023-06-19T11:22:12;3.45;;;2.80;;
9938;SDS011;5008;50.656;7.188;2023-06-19T11:24:44;2.70;;;2.50;;
9938;SDS011;5008;50.656;7.188;2023-06-19T11:27:20;2.88;;;2.67;;
9938;SDS011;5008;50.656;7.188;2023-06-19T11:29:54;3.00;;;2.70;;
9938;SDS011;5008;50.656;7.188;2023-06-19T11:32:23;2.60;;;2.40;;
9938;SDS011;5008;50.656;7.188;2023-06-19T11:34:56;2.78;;;2.58;;
9938;SDS011;5008;50.656;7.188;2023-06-19T11:37:23;3.00;;;2.80;;
9938;SDS011;5008;50.656;7.188;2023-06-19T11:39:51;4.97;;;2.70;;
9938;SDS011;5008;50.656;7.188;2023-06-19T11:42:19;3.25;;;2.60;;
9938;SDS011;5008;50.656;7.188;2023-06-19T11:44:52;2.83;;;2.58;;
9938;SDS011;5008;50.656;7.188;2023-06-19T11:47:20;2.80;;;2.60;;
9938;SDS011;5008;50.656;7.188;2023-06-19T11:49:47;2.53;;;2.33;;
9938;SDS011;5008;50.656;7.188;2023-06-19T11:52:15;2.20;;;2.10;;
9938;SDS011;5008;50.656;7.188;2023-06-19T11:54:42;2.40;;;2.00;;
9938;SDS011;5008;50.656;7.188;2023-06-19T11:57:10;2.78;;;2.58;;
9938;SDS011;5008;50.656;7.188;2023-06-19T11:59:38;2.55;;;2.35;;
9938;SDS011;5008;50.656;7.188;2023-06-19T12:02:05;2.53;;;2.33;;
9938;SDS011;5008;50.656;7.188;2023-06-19T12:04:32;3.08;;;2.88;;
9938;SDS011;5008;50.656;7.188;2023-06-19T12:07:01;2.50;;;2.40;;
9938;SDS011;5008;50.656;7.188;2023-06-19T12:09:29;2.70;;;2.50;;
9938;SDS011;5008;50.656;7.188;2023-06-19T12:11:56;2.50;;;2.30;;
9938;SDS011;5008;50.656;7.188;2023-06-19T12:14:25;2.65;;;2.45;;
9938;SDS011;5008;50.656;7.188;2023-06-19T12:16:52;3.00;;;2.80;;
9938;SDS011;5008;50.656;7.188;2023-06-19T12:19:18;2.53;;;2.33;;
9938;SDS011;5008;50.656;7.188;2023-06-19T12:21:45;3.08;;;2.47;;
9938;SDS011;5008;50.656;7.188;2023-06-19T12:24:12;2.60;;;2.40;;
9938;SDS011;5008;50.656;7.188;2023-06-19T12:26:39;2.17;;;2.08;;
9938;SDS011;5008;50.656;7.188;2023-06-19T12:29:06;2.55;;;2.38;;
9938;SDS011;5008;50.656;7.188;2023-06-19T12:31:35;2.50;;;2.30;;
9938;SDS011;5008;50.656;7.188;2023-06-19T12:34:02;2.47;;;2.28;;
9938;SDS011;5008;50.656;7.188;2023-06-19T12:36:30;2.50;;;2.30;;
9938;SDS011;5008;50.656;7.188;2023-06-19T12:38:58;2.72;;;2.25;;
9938;SDS011;5008;50.656;7.188;2023-06-19T12:41:25;2.70;;;2.50;;
9938;SDS011;5008;50.656;7.188;2023-06-19T12:43:52;2.78;;;2.58;;
9938;SDS011;5008;50.656;7.188;2023-06-19T12:46:19;2.60;;;2.40;;
9938;SDS011;5008;50.656;7.188;2023-06-19T12:48:47;3.60;;;2.72;;
9938;SDS011;5008;50.656;7.188;2023-06-19T12:51:15;2.80;;;2.60;;
9938;SDS011;5008;50.656;7.188;2023-06-19T12:53:43;2.85;;;2.65;;
9938;SDS011;5008;50.656;7.188;2023-06-19T12:56:10;2.30;;;2.17;;
9938;SDS011;5008;50.656;7.188;2023-06-19T12:58:36;2.60;;;2.40;;
9938;SDS011;5008;50.656;7.188;2023-06-19T13:01:03;2.80;;;2.60;;
9938;SDS011;5008;50.656;7.188;2023-06-19T13:03:30;2.92;;;2.17;;
9938;SDS011;5008;50.656;7.188;2023-06-19T13:05:58;2.95;;;2.65;;
9938;SDS011;5008;50.656;7.188;2023-06-19T13:08:25;2.60;;;2.40;;
9938;SDS011;5008;50.656;7.188;2023-06-19T13:10:52;2.40;;;2.20;;
9938;SDS011;5008;50.656;7.188;2023-06-19T13:13:19;2.15;;;2.05;;
9938;SDS011;5008;50.656;7.188;2023-06-19T13:15:47;2.75;;;2.55;;
9938;SDS011;5008;50.656;7.188;2023-06-19T13:18:14;2.67;;;2.47;;
9938;SDS011;5008;50.656;7.188;2023-06-19T13:20:41;2.67;;;2.47;;
9938;SDS011;5008;50.656;7.188;2023-06-19T13:23:11;2.75;;;2.55;;
9938;SDS011;5008;50.656;7.188;2023-06-19T13:25:38;3.17;;;2.35;;
9938;SDS011;5008;50.656;7.188;2023-06-19T13:28:04;2.50;;;2.40;;
9938;SDS011;5008;50.656;7.188;2023-06-19T13:30:31;2.63;;;2.42;;
9938;SDS011;5008;50.656;7.188;2023-06-19T13:32:58;3.03;;;2.50;;
9938;SDS011;5008;50.656;7.188;2023-06-19T13:35:25;2.80;;;2.60;;
9938;SDS011;5008;50.656;7.188;2023-06-19T13:37:51;2.65;;;2.45;;
9938;SDS011;5008;50.656;7.188;2023-06-19T13:40:20;2.80;;;2.60;;
9938;SDS011;5008;50.656;7.188;2023-06-19T13:42:46;2.78;;;2.58;;
9938;SDS011;5008;50.656;7.188;2023-06-19T13:45:14;3.50;;;2.67;;
9938;SDS011;5008;50.656;7.188;2023-06-19T13:47:40;3.97;;;2.70;;
9938;SDS011;5008;50.656;7.188;2023-06-19T13:50:07;3.00;;;2.70;;
9938;SDS011;5008;50.656;7.188;2023-06-19T13:52:35;2.92;;;2.70;;
9938;SDS011;5008;50.656;7.188;2023-06-19T13:55:02;3.35;;;2.40;;
9938;SDS011;5008;50.656;7.188;2023-06-19T13:57:31;2.90;;;2.70;;
9938;SDS011;5008;50.656;7.188;2023-06-19T13:59:58;2.60;;;2.40;;
9938;SDS011;5008;50.656;7.188;2023-06-19T14:02:25;2.83;;;2.63;;
9938;SDS011;5008;50.656;7.188;2023-06-19T14:04:55;3.03;;;2.83;;
9938;SDS011;5008;50.656;7.188;2023-06-19T14:07:33;3.05;;;2.75;;
9938;SDS011;5008;50.656;7.188;2023-06-19T14:10:00;2.78;;;2.58;;
9938;SDS011;5008;50.656;7.188;2023-06-19T14:12:29;4.43;;;2.92;;
9938;SDS011;5008;50.656;7.188;2023-06-19T14:14:57;2.92;;;2.58;;
9938;SDS011;5008;50.656;7.188;2023-06-19T14:17:24;3.30;;;2.97;;
9938;SDS011;5008;50.656;7.188;2023-06-19T14:19:51;4.00;;;2.70;;
9938;SDS011;5008;50.656;7.188;2023-06-19T14:22:19;2.83;;;2.63;;
9938;SDS011;5008;50.656;7.188;2023-06-19T14:24:46;2.90;;;2.70;;
9938;SDS011;5008;50.656;7.188;2023-06-19T14:27:13;2.72;;;2.53;;
9938;SDS011;5008;50.656;7.188;2023-06-19T14:29:40;2.95;;;2.75;;
9938;SDS011;5008;50.656;7.188;2023-06-19T14:32:08;3.15;;;2.80;;
9938;SDS011;5008;50.656;7.188;2023-06-19T14:34:35;3.13;;;2.67;;
9938;SDS011;5008;50.656;7.188;2023-06-19T14:37:01;3.08;;;2.85;;
9938;SDS011;5008;50.656;7.188;2023-06-19T14:39:28;2.95;;;2.60;;
9938;SDS011;5008;50.656;7.188;2023-06-19T14:41:55;2.92;;;2.60;;
9938;SDS011;5008;50.656;7.188;2023-06-19T14:44:22;3.55;;;2.70;;
9938;SDS011;5008;50.656;7.188;2023-06-19T14:46:49;3.20;;;2.90;;
9938;SDS011;5008;50.656;7.188;2023-06-19T14:49:18;3.33;;;2.60;;
9938;SDS011;5008;50.656;7.188;2023-06-19T14:51:45;2.72;;;2.53;;
9938;SDS011;5008;50.656;7.188;2023-06-19T14:54:11;4.60;;;2.90;;
9938;SDS011;5008;50.656;7.188;2023-06-19T14:56:40;2.72;;;2.53;;
9938;SDS011;5008;50.656;7.188;2023-06-19T14:59:09;5.18;;;2.90;;
9938;SDS011;5008;50.656;7.188;2023-06-19T15:01:35;3.15;;;2.80;;
9938;SDS011;5008;50.656;7.188;2023-06-19T15:04:02;3.15;;;2.88;;
9938;SDS011;5008;50.656;7.188;2023-06-19T15:09:01;4.82;;;2.90;;
9938;SDS011;5008;50.656;7.188;2023-06-19T15:11:28;3.03;;;2.72;;
9938;SDS011;5008;50.656;7.188;2023-06-19T15:13:58;4.00;;;2.80;;
9938;SDS011;5008;50.656;7.188;2023-06-19T15:16:25;2.95;;;2.72;;
9938;SDS011;5008;50.656;7.188;2023-06-19T15:18:52;3.30;;;3.00;;
9938;SDS011;5008;50.656;7.188;2023-06-19T15:21:19;3.08;;;2.80;;
9938;SDS011;5008;50.656;7.188;2023-06-19T15:23:48;4.97;;;3.03;;
9938;SDS011;5008;50.656;7.188;2023-06-19T15:26:15;3.17;;;2.90;;
9938;SDS011;5008;50.656;7.188;2023-06-19T15:28:42;2.80;;;2.60;;
9938;SDS011;5008;50.656;7.188;2023-06-19T15:31:09;2.88;;;2.67;;
9938;SDS011;5008;50.656;7.188;2023-06-19T15:33:36;2.55;;;2.35;;
9938;SDS011;5008;50.656;7.188;2023-06-19T15:36:09;3.33;;;2.78;;
9938;SDS011;5008;50.656;7.188;2023-06-19T15:38:36;2.83;;;2.53;;
9938;SDS011;5008;50.656;7.188;2023-06-19T15:41:05;3.45;;;2.60;;
9938;SDS011;5008;50.656;7.188;2023-06-19T15:43:32;3.33;;;3.05;;
9938;SDS011;5008;50.656;7.188;2023-06-19T15:45:59;3.58;;;3.28;;
9938;SDS011;5008;50.656;7.188;2023-06-19T15:48:26;3.55;;;2.78;;
9938;SDS011;5008;50.656;7.188;2023-06-19T15:50:54;2.83;;;2.63;;
9938;SDS011;5008;50.656;7.188;2023-06-19T15:53:21;3.35;;;3.05;;
9938;SDS011;5008;50.656;7.188;2023-06-19T15:55:48;2.80;;;2.60;;
9938;SDS011;5008;50.656;7.188;2023-06-19T15:58:16;2.83;;;2.53;;
9938;SDS011;5008;50.656;7.188;2023-06-19T16:00:43;2.58;;;2.38;;
9938;SDS011;5008;50.656;7.188;2023-06-19T16:03:13;3.10;;;2.90;;
9938;SDS011;5008;50.656;7.188;2023-06-19T16:05:42;2.95;;;2.67;;
9938;SDS011;5008;50.656;7.188;2023-06-19T16:08:15;2.70;;;2.50;;
9938;SDS011;5008;50.656;7.188;2023-06-19T16:10:42;2.83;;;2.63;;
9938;SDS011;5008;50.656;7.188;2023-06-19T16:13:09;2.95;;;2.75;;
9938;SDS011;5008;50.656;7.188;2023-06-19T16:15:39;3.72;;;2.80;;
9938;SDS011;5008;50.656;7.188;2023-06-19T16:18:07;3.42;;;2.30;;
9938;SDS011;5008;50.656;7.188;2023-06-19T16:20:33;2.97;;;2.67;;
9938;SDS011;5008;50.656;7.188;2023-06-19T16:23:00;2.80;;;2.60;;
9938;SDS011;5008;50.656;7.188;2023-06-19T16:25:27;3.38;;;2.60;;
9938;SDS011;5008;50.656;7.188;2023-06-19T16:27:54;2.70;;;2.50;;
9938;SDS011;5008;50.656;7.188;2023-06-19T16:30:21;2.90;;;2.70;;
9938;SDS011;5008;50.656;7.188;2023-06-19T16:32:49;3.08;;;2.67;;
9938;SDS011;5008;50.656;7.188;2023-06-19T16:35:16;2.45;;;2.25;;
9938;SDS011;5008;50.656;7.188;2023-06-19T16:37:47;3.55;;;2.53;;
9938;SDS011;5008;50.656;7.188;2023-06-19T16:40:14;2.20;;;2.00;;
9938;SDS011;5008;50.656;7.188;2023-06-19T16:42:41;3.20;;;2.80;;
9938;SDS011;5008;50.656;7.188;2023-06-19T16:45:09;2.95;;;2.63;;
9938;SDS011;5008;50.656;7.188;2023-06-19T16:47:36;3.17;;;2.47;;
9938;SDS011;5008;50.656;7.188;2023-06-19T16:50:04;2.72;;;2.53;;
9938;SDS011;5008;50.656;7.188;2023-06-19T16:52:31;2.63;;;2.42;;
9938;SDS011;5008;50.656;7.188;2023-06-19T16:54:58;3.03;;;2.50;;
9938;SDS011;5008;50.656;7.188;2023-06-19T16:57:25;2.60;;;2.38;;
9938;SDS011;5008;50.656;7.188;2023-06-19T16:59:54;2.45;;;2.33;;
9938;SDS011;5008;50.656;7.188;2023-06-19T17:02:21;2.60;;;2.40;;
9938;SDS011;5008;50.656;7.188;2023-06-19T17:04:48;2.88;;;2.67;;
9938;SDS011;5008;50.656;7.188;2023-06-19T17:07:16;2.83;;;2.63;;
9938;SDS011;5008;50.656;7.188;2023-06-19T17:09:43;3.28;;;2.80;;
9938;SDS011;5008;50.656;7.188;2023-06-19T17:12:11;3.40;;;3.10;;
9938;SDS011;5008;50.656;7.188;2023-06-19T17:14:38;3.45;;;2.45;;
9938;SDS011;5008;50.656;7.188;2023-06-19T17:17:05;2.80;;;2.60;;
9938;SDS011;5008;50.656;7.188;2023-06-19T17:19:32;3.00;;;2.80;;
9938;SDS011;5008;50.656;7.188;2023-06-19T17:21:59;3.63;;;2.45;;
9938;SDS011;5008;50.656;7.188;2023-06-19T17:24:27;3.33;;;3.03;;
9938;SDS011;5008;50.656;7.188;2023-06-19T17:26:54;3.08;;;2.85;;
9938;SDS011;5008;50.656;7.188;2023-06-19T17:29:22;2.70;;;2.50;;
9938;SDS011;5008;50.656;7.188;2023-06-19T17:31:49;3.20;;;2.50;;
9938;SDS011;5008;50.656;7.188;2023-06-19T17:34:16;3.00;;;2.50;;
9938;SDS011;5008;50.656;7.188;2023-06-19T17:36:43;3.30;;;2.70;;
9938;SDS011;5008;50.656;7.188;2023-06-19T17:39:10;2.78;;;2.58;;
9938;SDS011;5008;50.656;7.188;2023-06-19T17:41:38;2.58;;;2.38;;
9938;SDS011;5008;50.656;7.188;2023-06-19T17:44:05;4.53;;;2.40;;
9938;SDS011;5008;50.656;7.188;2023-06-19T17:46:32;2.75;;;2.55;;
9938;SDS011;5008;50.656;7.188;2023-06-19T17:48:59;3.17;;;2.88;;
9938;SDS011;5008;50.656;7.188;2023-06-19T17:51:26;2.80;;;2.60;;
9938;SDS011;5008;50.656;7.188;2023-06-19T17:53:52;2.63;;;2.42;;
9938;SDS011;5008;50.656;7.188;2023-06-19T17:56:19;5.60;;;2.72;;
9938;SDS011;5008;50.656;7.188;2023-06-19T17:58:47;2.97;;;2.78;;
9938;SDS011;5008;50.656;7.188;2023-06-19T18:01:14;2.90;;;2.58;;
9938;SDS011;5008;50.656;7.188;2023-06-19T18:03:41;3.42;;;3.00;;
9938;SDS011;5008;50.656;7.188;2023-06-19T18:06:08;2.88;;;2.67;;
9938;SDS011;5008;50.656;7.188;2023-06-19T18:08:34;3.25;;;2.72;;
9938;SDS011;5008;50.656;7.188;2023-06-19T18:11:01;3.50;;;2.72;;
9938;SDS011;5008;50.656;7.188;2023-06-19T18:13:28;2.90;;;2.70;;
9938;SDS011;5008;50.656;7.188;2023-06-19T18:15:56;3.03;;;2.83;;
9938;SDS011;5008;50.656;7.188;2023-06-19T18:18:23;2.85;;;2.65;;
9938;SDS011;5008;50.656;7.188;2023-06-19T18:20:49;3.40;;;3.10;;
9938;SDS011;5008;50.656;7.188;2023-06-19T18:23:16;2.90;;;2.70;;
9938;SDS011;5008;50.656;7.188;2023-06-19T18:25:43;2.75;;;2.55;;
9938;SDS011;5008;50.656;7.188;2023-06-19T18:28:10;3.00;;;2.80;;
9938;SDS011;5008;50.656;7.188;2023-06-19T18:30:37;3.28;;;2.97;;
9938;SDS011;5008;50.656;7.188;2023-06-19T18:33:05;3.50;;;3.20;;
9938;SDS011;5008;50.656;7.188;2023-06-19T18:38:01;2.65;;;2.45;;
9938;SDS011;5008;50.656;7.188;2023-06-19T18:40:28;4.22;;;2.80;;
9938;SDS011;5008;50.656;7.188;2023-06-19T18:42:55;3.08;;;2.78;;
9938;SDS011;5008;50.656;7.188;2023-06-19T18:45:22;3.17;;;2.78;;
9938;SDS011;5008;50.656;7.188;2023-06-19T18:47:51;4.72;;;3.38;;
9938;SDS011;5008;50.656;7.188;2023-06-19T18:50:19;3.53;;;3.22;;
9938;SDS011;5008;50.656;7.188;2023-06-19T18:52:46;3.13;;;2.92;;
9938;SDS011;5008;50.656;7.188;2023-06-19T18:55:13;3.60;;;2.92;;
9938;SDS011;5008;50.656;7.188;2023-06-19T18:57:40;3.35;;;3.05;;
9938;SDS011;5008;50.656;7.188;2023-06-19T19:00:07;3.33;;;3.03;;